PWSweather.com
Personal Weather Stations
Station Observations
COONRAPIDS
Minneapolis, MN 55433

Minneapolis, MN 55433

Lat: 45.187721, Lon: -93.36828

Elevation: 898

Station Type: Davis Vantage Pro 2

High Low Average
Temperature 6.0°F-14.4°C -9.6°F-23.1°C -2.5°F-19.2°C
Dew Point -8.2°F-22.3°C -15.6°F-26.4°C -11.4°F-24.1°C
Winds Calm Calm Calm Calm Calm SSECalm SSE
Wind Gusts -- -- --
Humidity 75% 50% 65%
Pressure 30.54 in1034.2 mb 30.46 in1031.5 mb -
Precipitation 0.00 in0.0 mm - -
Hour Temp Dew Point Humidity Winds Wind Gusts Pressure Precip Precip Rate Daily Precip Total
12:00 AM -4.6°F-20.3°C -11.6°F-24.2°C 71% Calm Calm -- 30.46 in1031.5 mb - 0.00 in0.0 mm 0.00 in0.0 mm
12:10 AM -5.0°F-20.6°C -12.0°F-24.4°C 71% Calm Calm -- 30.46 in1031.5 mb - 0.00 in0.0 mm 0.00 in0.0 mm
12:20 AM -5.3°F-20.7°C -12.0°F-24.4°C 72% Calm Calm -- 30.46 in1031.5 mb - 0.00 in0.0 mm 0.00 in0.0 mm
12:30 AM -5.5°F-20.8°C -12.2°F-24.6°C 72% Calm Calm -- 30.46 in1031.5 mb - 0.00 in0.0 mm 0.00 in0.0 mm
12:40 AM -5.7°F-20.9°C -12.1°F-24.5°C 73% Calm Calm -- 30.46 in1031.5 mb - 0.00 in0.0 mm 0.00 in0.0 mm
12:50 AM -5.4°F-20.8°C -11.8°F-24.3°C 73% Calm Calm -- 30.46 in1031.5 mb - 0.00 in0.0 mm 0.00 in0.0 mm
01:00 AM -4.9°F-20.5°C -11.3°F-24.1°C 73% Calm Calm -- 30.46 in1031.5 mb - 0.00 in0.0 mm 0.00 in0.0 mm
01:10 AM -4.2°F-20.1°C -10.7°F-23.7°C 73% Calm Calm -- 30.46 in1031.5 mb - 0.00 in0.0 mm 0.00 in0.0 mm
01:20 AM -3.8°F-19.9°C -10.6°F-23.7°C 72% Calm Calm -- 30.46 in1031.5 mb - 0.00 in0.0 mm 0.00 in0.0 mm
01:30 AM -3.5°F-19.7°C -10.6°F-23.7°C 71% Calm Calm -- 30.47 in1031.8 mb - 0.00 in0.0 mm 0.00 in0.0 mm
01:40 AM -3.4°F-19.7°C -10.4°F-23.6°C 71% Calm Calm -- 30.46 in1031.5 mb - 0.00 in0.0 mm 0.00 in0.0 mm
01:50 AM -3.2°F-19.6°C -10.6°F-23.7°C 70% Calm Calm -- 30.46 in1031.5 mb - 0.00 in0.0 mm 0.00 in0.0 mm
02:00 AM -3.1°F-19.5°C -10.5°F-23.6°C 70% Calm Calm -- 30.46 in1031.5 mb - 0.00 in0.0 mm 0.00 in0.0 mm
02:10 AM -3.1°F-19.5°C -10.8°F-23.8°C 69% Calm Calm -- 30.46 in1031.5 mb - 0.00 in0.0 mm 0.00 in0.0 mm
02:20 AM -3.1°F-19.5°C -10.7°F-23.7°C 69% Calm Calm -- 30.46 in1031.5 mb - 0.00 in0.0 mm 0.00 in0.0 mm
02:30 AM -3.0°F-19.4°C -10.7°F-23.7°C 69% Calm Calm -- 30.47 in1031.8 mb - 0.00 in0.0 mm 0.00 in0.0 mm
02:40 AM -2.8°F-19.3°C -10.5°F-23.6°C 69% Calm Calm -- 30.47 in1031.8 mb - 0.00 in0.0 mm 0.00 in0.0 mm
02:50 AM -2.7°F-19.3°C -10.4°F-23.6°C 69% Calm Calm -- 30.47 in1031.8 mb - 0.00 in0.0 mm 0.00 in0.0 mm
03:00 AM -2.7°F-19.3°C -10.7°F-23.7°C 68% Calm Calm -- 30.48 in1032.2 mb - 0.00 in0.0 mm 0.00 in0.0 mm
03:10 AM -2.8°F-19.3°C -10.8°F-23.8°C 68% Calm Calm -- 30.48 in1032.2 mb - 0.00 in0.0 mm 0.00 in0.0 mm
03:20 AM -3.1°F-19.5°C -11.1°F-23.9°C 68% Calm Calm -- 30.47 in1031.8 mb - 0.00 in0.0 mm 0.00 in0.0 mm
03:30 AM -3.5°F-19.7°C -11.4°F-24.1°C 68% Calm Calm -- 30.48 in1032.2 mb - 0.00 in0.0 mm 0.00 in0.0 mm
03:40 AM -3.8°F-19.9°C -11.4°F-24.1°C 69% Calm Calm -- 30.48 in1032.2 mb - 0.00 in0.0 mm 0.00 in0.0 mm
03:50 AM -3.9°F-19.9°C -11.5°F-24.2°C 69% Calm Calm -- 30.49 in1032.5 mb - 0.00 in0.0 mm 0.00 in0.0 mm
04:00 AM -3.8°F-19.9°C -11.1°F-23.9°C 70% Calm Calm -- 30.50 in1032.8 mb - 0.00 in0.0 mm 0.00 in0.0 mm
04:10 AM -3.8°F-19.9°C -11.4°F-24.1°C 69% Calm Calm -- 30.49 in1032.5 mb - 0.00 in0.0 mm 0.00 in0.0 mm
04:20 AM -4.1°F-20.1°C -11.7°F-24.3°C 69% Calm Calm -- 30.49 in1032.5 mb - 0.00 in0.0 mm 0.00 in0.0 mm
04:30 AM -4.5°F-20.3°C -12.1°F-24.5°C 69% Calm Calm -- 30.49 in1032.5 mb - 0.00 in0.0 mm 0.00 in0.0 mm
04:40 AM -5.0°F-20.6°C -12.3°F-24.6°C 70% Calm Calm -- 30.49 in1032.5 mb - 0.00 in0.0 mm 0.00 in0.0 mm
04:50 AM -5.4°F-20.8°C -12.4°F-24.7°C 71% Calm Calm -- 30.49 in1032.5 mb - 0.00 in0.0 mm 0.00 in0.0 mm
05:00 AM -5.9°F-21.1°C -12.9°F-24.9°C 71% Calm Calm -- 30.50 in1032.8 mb - 0.00 in0.0 mm 0.00 in0.0 mm
05:10 AM -6.1°F-21.2°C -12.8°F-24.9°C 72% Calm Calm -- 30.50 in1032.8 mb - 0.00 in0.0 mm 0.00 in0.0 mm
05:20 AM -6.3°F-21.3°C -13.0°F-25.0°C 72% Calm Calm -- 30.50 in1032.8 mb - 0.00 in0.0 mm 0.00 in0.0 mm
05:30 AM -6.4°F-21.3°C -12.8°F-24.9°C 73% Calm Calm -- 30.50 in1032.8 mb - 0.00 in0.0 mm 0.00 in0.0 mm
05:40 AM -6.4°F-21.3°C -12.8°F-24.9°C 73% Calm Calm -- 30.50 in1032.8 mb - 0.00 in0.0 mm 0.00 in0.0 mm
05:50 AM -6.0°F-21.1°C -12.1°F-24.5°C 74% Calm Calm -- 30.50 in1032.8 mb - 0.00 in0.0 mm 0.00 in0.0 mm
06:00 AM -5.4°F-20.8°C -11.6°F-24.2°C 74% Calm Calm -- 30.50 in1032.8 mb - 0.00 in0.0 mm 0.00 in0.0 mm
06:10 AM -5.0°F-20.6°C -11.2°F-24.0°C 74% Calm Calm -- 30.50 in1032.8 mb - 0.00 in0.0 mm 0.00 in0.0 mm
06:20 AM -4.7°F-20.4°C -11.2°F-24.0°C 73% Calm Calm -- 30.50 in1032.8 mb - 0.00 in0.0 mm 0.00 in0.0 mm
06:30 AM -4.5°F-20.3°C -10.9°F-23.8°C 73% Calm Calm -- 30.50 in1032.8 mb - 0.00 in0.0 mm 0.00 in0.0 mm
06:40 AM -4.3°F-20.2°C -11.0°F-23.9°C 72% Calm Calm -- 30.50 in1032.8 mb - 0.00 in0.0 mm 0.00 in0.0 mm
06:50 AM -4.1°F-20.1°C -10.9°F-23.8°C 72% Calm Calm -- 30.50 in1032.8 mb - 0.00 in0.0 mm 0.00 in0.0 mm
07:00 AM -4.0°F-20.0°C -10.8°F-23.8°C 72% Calm Calm -- 30.50 in1032.8 mb - 0.00 in0.0 mm 0.00 in0.0 mm
02:10 PM -4.1°F-20.1°C -11.1°F-23.9°C 71% Calm Calm -- 30.51 in1033.2 mb - 0.00 in0.0 mm 0.00 in0.0 mm
02:20 PM 4.5°F-15.3°C -8.2°F-22.3°C 55% Calm Calm -- 30.48 in1032.2 mb - 0.00 in0.0 mm 0.00 in0.0 mm
02:30 PM 4.9°F-15.1°C -8.5°F-22.5°C 53% Calm Calm -- 30.48 in1032.2 mb - 0.00 in0.0 mm 0.00 in0.0 mm
02:40 PM 5.1°F-14.9°C -8.7°F-22.6°C 52% Calm Calm -- 30.48 in1032.2 mb - 0.00 in0.0 mm 0.00 in0.0 mm
02:50 PM 5.3°F-14.8°C -8.5°F-22.5°C 52% Calm Calm -- 30.48 in1032.2 mb - 0.00 in0.0 mm 0.00 in0.0 mm
03:00 PM 5.3°F-14.8°C -8.5°F-22.5°C 52% Calm Calm -- 30.47 in1031.8 mb - 0.00 in0.0 mm 0.00 in0.0 mm
03:10 PM 5.4°F-14.8°C -8.4°F-22.4°C 52% Calm Calm -- 30.47 in1031.8 mb - 0.00 in0.0 mm 0.00 in0.0 mm
03:20 PM 5.5°F-14.7°C -8.8°F-22.7°C 51% Calm Calm -- 30.47 in1031.8 mb - 0.00 in0.0 mm 0.00 in0.0 mm
03:30 PM 5.7°F-14.6°C -8.2°F-22.3°C 52% Calm Calm -- 30.47 in1031.8 mb - 0.00 in0.0 mm 0.00 in0.0 mm
03:40 PM 6.0°F-14.4°C -8.7°F-22.6°C 50% Calm Calm -- 30.47 in1031.8 mb - 0.00 in0.0 mm 0.00 in0.0 mm
03:50 PM 5.5°F-14.7°C -8.7°F-22.6°C 51% Calm Calm -- 30.48 in1032.2 mb - 0.00 in0.0 mm 0.00 in0.0 mm
04:00 PM 5.5°F-14.7°C -8.7°F-22.6°C 51% Calm Calm -- 30.47 in1031.8 mb - 0.00 in0.0 mm 0.00 in0.0 mm
04:10 PM 5.4°F-14.8°C -8.8°F-22.7°C 51% Calm Calm -- 30.47 in1031.8 mb - 0.00 in0.0 mm 0.00 in0.0 mm
04:20 PM 5.2°F-14.9°C -8.6°F-22.6°C 52% Calm Calm -- 30.47 in1031.8 mb - 0.00 in0.0 mm 0.00 in0.0 mm
04:30 PM 5.1°F-14.9°C -8.8°F-22.7°C 52% Calm Calm -- 30.48 in1032.2 mb - 0.00 in0.0 mm 0.00 in0.0 mm
04:40 PM 4.8°F-15.1°C -9.0°F-22.8°C 52% Calm Calm -- 30.47 in1031.8 mb - 0.00 in0.0 mm 0.00 in0.0 mm
04:50 PM 4.8°F-15.1°C -8.6°F-22.6°C 53% Calm Calm -- 30.47 in1031.8 mb - 0.00 in0.0 mm 0.00 in0.0 mm
05:00 PM 4.6°F-15.2°C -8.8°F-22.7°C 53% Calm Calm -- 30.47 in1031.8 mb - 0.00 in0.0 mm 0.00 in0.0 mm
05:10 PM 4.4°F-15.3°C -9.0°F-22.8°C 53% Calm Calm -- 30.47 in1031.8 mb - 0.00 in0.0 mm 0.00 in0.0 mm
05:20 PM 4.1°F-15.5°C -8.9°F-22.7°C 54% Calm Calm -- 30.47 in1031.8 mb - 0.00 in0.0 mm 0.00 in0.0 mm
05:30 PM 3.7°F-15.7°C -9.3°F-22.9°C 54% Calm Calm -- 30.47 in1031.8 mb - 0.00 in0.0 mm 0.00 in0.0 mm
05:40 PM 3.2°F-16.0°C -9.8°F-23.2°C 54% Calm Calm -- 30.48 in1032.2 mb - 0.00 in0.0 mm 0.00 in0.0 mm
05:50 PM 2.6°F-16.3°C -9.9°F-23.3°C 55% Calm Calm -- 30.48 in1032.2 mb - 0.00 in0.0 mm 0.00 in0.0 mm
06:00 PM 2.1°F-16.6°C -10.0°F-23.3°C 56% Calm Calm -- 30.48 in1032.2 mb - 0.00 in0.0 mm 0.00 in0.0 mm
06:10 PM 1.5°F-16.9°C -10.2°F-23.4°C 57% Calm Calm -- 30.48 in1032.2 mb - 0.00 in0.0 mm 0.00 in0.0 mm
06:20 PM 1.1°F-17.2°C -10.3°F-23.5°C 58% Calm Calm -- 30.48 in1032.2 mb - 0.00 in0.0 mm 0.00 in0.0 mm
06:30 PM 0.6°F-17.4°C -10.4°F-23.6°C 59% Calm Calm -- 30.48 in1032.2 mb - 0.00 in0.0 mm 0.00 in0.0 mm
06:40 PM 0.3°F-17.6°C -10.7°F-23.7°C 59% Calm Calm -- 30.48 in1032.2 mb - 0.00 in0.0 mm 0.00 in0.0 mm
06:50 PM 0.2°F-17.7°C -10.4°F-23.6°C 60% Calm Calm -- 30.48 in1032.2 mb - 0.00 in0.0 mm 0.00 in0.0 mm
07:00 PM -0.1°F-17.8°C -10.7°F-23.7°C 60% Calm Calm -- 30.49 in1032.5 mb - 0.00 in0.0 mm 0.00 in0.0 mm
07:10 PM -0.4°F-18.0°C -11.0°F-23.9°C 60% Calm Calm -- 30.49 in1032.5 mb - 0.00 in0.0 mm 0.00 in0.0 mm
07:20 PM -0.8°F-18.2°C -11.0°F-23.9°C 61% Calm Calm -- 30.49 in1032.5 mb - 0.00 in0.0 mm 0.00 in0.0 mm
07:30 PM -1.2°F-18.4°C -11.5°F-24.2°C 61% Calm Calm -- 30.50 in1032.8 mb - 0.00 in0.0 mm 0.00 in0.0 mm
07:40 PM -1.7°F-18.7°C -11.9°F-24.4°C 61% Calm Calm -- 30.50 in1032.8 mb - 0.00 in0.0 mm 0.00 in0.0 mm
07:50 PM -2.1°F-18.9°C -11.9°F-24.4°C 62% Calm Calm -- 30.50 in1032.8 mb - 0.00 in0.0 mm 0.00 in0.0 mm
08:00 PM -2.4°F-19.1°C -11.9°F-24.4°C 63% Calm Calm -- 30.50 in1032.8 mb - 0.00 in0.0 mm 0.00 in0.0 mm
08:10 PM -2.6°F-19.2°C -12.1°F-24.5°C 63% Calm Calm -- 30.50 in1032.8 mb - 0.00 in0.0 mm 0.00 in0.0 mm
08:20 PM -3.1°F-19.5°C -12.3°F-24.6°C 64% Calm Calm -- 30.51 in1033.2 mb - 0.00 in0.0 mm 0.00 in0.0 mm
08:30 PM -3.4°F-19.7°C -12.2°F-24.6°C 65% Calm Calm -- 30.51 in1033.2 mb - 0.00 in0.0 mm 0.00 in0.0 mm
08:40 PM -3.7°F-19.8°C -12.5°F-24.7°C 65% Calm Calm -- 30.51 in1033.2 mb - 0.00 in0.0 mm 0.00 in0.0 mm
08:50 PM -3.9°F-19.9°C -12.4°F-24.7°C 66% Calm Calm -- 30.51 in1033.2 mb - 0.00 in0.0 mm 0.00 in0.0 mm
09:00 PM -4.1°F-20.1°C -12.6°F-24.8°C 66% Calm Calm -- 30.51 in1033.2 mb - 0.00 in0.0 mm 0.00 in0.0 mm
09:10 PM -4.4°F-20.2°C -12.9°F-24.9°C 66% Calm Calm -- 30.51 in1033.2 mb - 0.00 in0.0 mm 0.00 in0.0 mm
09:20 PM -4.9°F-20.5°C -13.1°F-25.1°C 67% Calm Calm -- 30.51 in1033.2 mb - 0.00 in0.0 mm 0.00 in0.0 mm
09:30 PM -5.3°F-20.7°C -13.2°F-25.1°C 68% Calm Calm -- 30.51 in1033.2 mb - 0.00 in0.0 mm 0.00 in0.0 mm
09:40 PM -5.6°F-20.9°C -13.2°F-25.1°C 69% Calm Calm -- 30.52 in1033.5 mb - 0.00 in0.0 mm 0.00 in0.0 mm
09:50 PM -5.9°F-21.1°C -13.4°F-25.2°C 69% Calm Calm -- 30.52 in1033.5 mb - 0.00 in0.0 mm 0.00 in0.0 mm
10:00 PM -6.3°F-21.3°C -13.5°F-25.3°C 70% Calm Calm -- 30.52 in1033.5 mb - 0.00 in0.0 mm 0.00 in0.0 mm
10:10 PM -6.6°F-21.4°C -13.8°F-25.4°C 70% Calm Calm -- 30.52 in1033.5 mb - 0.00 in0.0 mm 0.00 in0.0 mm
10:20 PM -7.0°F-21.7°C -13.9°F-25.5°C 71% Calm Calm -- 30.52 in1033.5 mb - 0.00 in0.0 mm 0.00 in0.0 mm
10:30 PM -7.3°F-21.8°C -14.2°F-25.7°C 71% Calm Calm -- 30.52 in1033.5 mb - 0.00 in0.0 mm 0.00 in0.0 mm
10:40 PM -7.6°F-22.0°C -14.5°F-25.8°C 71% Calm Calm -- 30.52 in1033.5 mb - 0.00 in0.0 mm 0.00 in0.0 mm
10:50 PM -7.9°F-22.2°C -14.8°F-26.0°C 71% Calm Calm -- 30.52 in1033.5 mb - 0.00 in0.0 mm 0.00 in0.0 mm
11:00 PM -8.1°F-22.3°C -14.7°F-25.9°C 72% Calm Calm -- 30.53 in1033.9 mb - 0.00 in0.0 mm 0.00 in0.0 mm
11:10 PM -8.3°F-22.4°C -14.6°F-25.9°C 73% Calm Calm -- 30.53 in1033.9 mb - 0.00 in0.0 mm 0.00 in0.0 mm
11:20 PM -8.4°F-22.4°C -14.7°F-25.9°C 73% Calm Calm -- 30.53 in1033.9 mb - 0.00 in0.0 mm 0.00 in0.0 mm
11:30 PM -8.5°F-22.5°C -14.6°F-25.9°C 74% Calm Calm -- 30.53 in1033.9 mb - 0.00 in0.0 mm 0.00 in0.0 mm
11:40 PM -8.8°F-22.7°C -14.8°F-26.0°C 74% Calm Calm -- 30.53 in1033.9 mb - 0.00 in0.0 mm 0.00 in0.0 mm
11:50 PM -9.0°F-22.8°C -15.0°F-26.1°C 74% Calm Calm -- 30.53 in1033.9 mb - 0.00 in0.0 mm 0.00 in0.0 mm